Time;durP1;ratioP1;P1;durP2;ratioP2;P2;SDS_P1;SDS_P2;PMS_P1;PMS_P2;Temp;Humidity;BMP_temperature;BMP_pressure;BME280_temperature;BME280_humidity;BME280_pressure;Samples;Min_cycle;Max_cycle;Signal;HPM_P1;HPM_P2
2024/01/11 00:00:09;;;;;;;23.27;17.45;;;14.80;55.20;;;;;;4200963;27;20055;-44
2024/01/11 00:02:52;;;;;;;22.08;17.45;;;14.90;55.30;;;;;;4200624;28;20116;-44
2024/01/11 00:05:33;;;;;;;23.35;17.98;;;14.90;54.90;;;;;;4199417;27;20502;-44
2024/01/11 00:08:14;;;;;;;24.58;18.55;;;14.90;54.60;;;;;;4199808;27;20131;-44
2024/01/11 00:10:55;;;;;;;23.75;17.10;;;15.00;54.70;;;;;;4209677;27;20047;-44
2024/01/11 00:13:37;;;;;;;25.45;18.55;;;15.00;54.70;;;;;;4210745;28;20050;-44
2024/01/11 00:16:18;;;;;;;22.63;18.17;;;15.10;54.40;;;;;;4197670;28;20047;-45
2024/01/11 00:19:00;;;;;;;23.33;18.03;;;15.20;54.10;;;;;;4198513;28;20091;-46
2024/01/11 00:21:42;;;;;;;25.60;19.83;;;15.30;53.90;;;;;;4199719;28;20055;-45
2024/01/11 00:24:23;;;;;;;21.83;16.33;;;15.40;53.70;;;;;;4194428;27;20062;-45
2024/01/11 00:27:05;;;;;;;25.67;18.90;;;15.40;53.40;;;;;;4222371;27;20051;-44
2024/01/11 00:29:45;;;;;;;24.95;18.55;;;15.50;53.00;;;;;;4218230;27;20050;-45
2024/01/11 00:32:27;;;;;;;27.20;18.73;;;15.40;53.00;;;;;;4214404;27;20138;-44
2024/01/11 00:35:09;;;;;;;25.20;17.85;;;15.40;53.30;;;;;;4217546;27;20506;-44
2024/01/11 00:37:50;;;;;;;23.60;17.63;;;15.40;53.60;;;;;;4218130;27;20058;-45
2024/01/11 00:40:32;;;;;;;24.40;18.15;;;15.40;53.50;;;;;;4233561;27;20047;-44
2024/01/11 00:43:13;;;;;;;26.20;19.35;;;15.40;53.60;;;;;;4223143;27;20055;-44
2024/01/11 00:45:54;;;;;;;26.75;18.27;;;15.50;53.40;;;;;;4201221;27;20873;-43
2024/01/11 00:48:35;;;;;;;24.08;18.42;;;15.60;53.30;;;;;;4199070;28;20412;-44
2024/01/11 00:51:18;;;;;;;26.60;19.00;;;15.60;53.30;;;;;;4199940;27;20051;-44
2024/01/11 00:53:59;;;;;;;23.90;18.52;;;15.60;53.30;;;;;;4200219;27;20051;-44
2024/01/11 00:56:39;;;;;;;24.17;17.87;;;15.60;53.50;;;;;;4202221;28;20087;-51
2024/01/11 00:59:20;;;;;;;24.33;17.75;;;15.60;53.70;;;;;;4214697;27;20280;-44
2024/01/11 01:02:01;;;;;;;25.90;19.63;;;15.70;53.90;;;;;;4214045;27;20451;-44
2024/01/11 01:04:43;;;;;;;24.65;18.35;;;15.70;53.90;;;;;;4210486;27;20497;-43
2024/01/11 01:07:25;;;;;;;25.10;18.35;;;15.70;53.90;;;;;;4209744;27;20095;-43
2024/01/11 01:10:08;;;;;;;25.40;18.60;;;15.70;54.10;;;;;;4212994;27;20169;-43
2024/01/11 01:12:49;;;;;;;24.75;18.58;;;15.80;54.10;;;;;;4212240;27;20498;-44
2024/01/11 01:15:30;;;;;;;26.10;19.27;;;15.80;54.00;;;;;;4213296;27;20107;-44
2024/01/11 01:18:11;;;;;;;25.38;18.55;;;15.80;54.00;;;;;;4199246;28;20106;-45
2024/01/11 01:20:52;;;;;;;26.00;18.98;;;15.80;54.10;;;;;;4206295;27;20100;-44
2024/01/11 01:23:34;;;;;;;24.00;17.95;;;15.80;54.20;;;;;;4213332;27;20050;-44
2024/01/11 01:26:15;;;;;;;25.70;19.23;;;15.80;54.30;;;;;;4192775;28;20089;-45
2024/01/11 01:28:56;;;;;;;23.73;17.40;;;15.90;54.10;;;;;;4196133;28;20078;-44
2024/01/11 01:31:38;;;;;;;26.20;18.50;;;16.00;54.10;;;;;;4197895;28;20051;-44
2024/01/11 01:34:20;;;;;;;24.63;18.25;;;15.90;54.80;;;;;;4196083;28;20403;-43
2024/01/11 01:37:01;;;;;;;22.85;17.02;;;15.90;54.10;;;;;;4198856;28;20100;-44
2024/01/11 01:39:44;;;;;;;23.05;17.95;;;16.00;54.10;;;;;;4197135;28;20552;-44
2024/01/11 01:42:24;;;;;;;25.23;19.35;;;15.90;54.20;;;;;;4199103;27;20051;-45
2024/01/11 01:45:08;;;;;;;26.23;18.45;;;15.90;54.40;;;;;;4187451;28;20055;-44
2024/01/11 01:47:49;;;;;;;25.17;18.27;;;15.90;54.40;;;;;;4196565;28;20185;-44
2024/01/11 01:50:30;;;;;;;25.17;18.00;;;15.90;54.30;;;;;;4197942;28;20878;-43
2024/01/11 01:53:11;;;;;;;25.50;18.05;;;16.00;54.30;;;;;;4199073;28;20059;-43
2024/01/11 01:55:54;;;;;;;23.92;18.38;;;16.00;55.00;;;;;;4196035;27;20059;-44
2024/01/11 01:58:36;;;;;;;25.33;18.85;;;15.90;55.00;;;;;;4194558;27;20070;-44
2024/01/11 02:01:17;;;;;;;25.52;18.48;;;15.90;54.40;;;;;;4199312;27;20062;-44
2024/01/11 02:03:59;;;;;;;25.50;19.00;;;15.90;54.40;;;;;;4204743;27;20192;-44
2024/01/11 02:06:43;;;;;;;23.98;17.75;;;15.80;54.60;;;;;;4216181;27;20513;-44
2024/01/11 02:09:25;;;;;;;24.60;18.30;;;15.80;54.70;;;;;;4214437;28;20106;-44
2024/01/11 02:12:10;;;;;;;24.83;17.83;;;15.70;54.90;;;;;;4215738;27;20129;-44
2024/01/11 02:14:55;;;;;;;26.52;19.38;;;15.60;55.00;;;;;;4216501;27;20075;-44
2024/01/11 02:17:36;;;;;;;24.77;17.55;;;15.60;55.40;;;;;;4199704;28;20051;-48
2024/01/11 02:20:17;;;;;;;24.20;17.65;;;15.50;56.30;;;;;;4199449;28;20051;-47
2024/01/11 02:23:02;;;;;;;24.60;18.58;;;15.60;55.50;;;;;;4208969;28;20057;-46
2024/01/11 02:25:44;;;;;;;24.17;16.88;;;15.60;55.30;;;;;;4213942;27;20174;-46
2024/01/11 02:28:25;;;;;;;25.33;18.60;;;15.60;56.00;;;;;;4198289;28;20543;-47
2024/01/11 02:31:07;;;;;;;26.27;18.80;;;15.70;55.60;;;;;;4197159;28;20101;-46
2024/01/11 02:33:48;;;;;;;24.92;18.58;;;15.90;55.10;;;;;;4200795;28;20124;-46
2024/01/11 02:36:29;;;;;;;22.83;17.83;;;15.90;54.80;;;;;;4208548;27;20178;-47
2024/01/11 02:39:11;;;;;;;24.77;19.40;;;16.00;54.50;;;;;;4197691;28;20070;-46
2024/01/11 02:41:57;;;;;;;23.58;18.88;;;16.10;54.50;;;;;;4196676;28;20530;-47
2024/01/11 02:44:38;;;;;;;25.75;18.70;;;16.10;54.40;;;;;;4199063;28;20082;-48
2024/01/11 02:47:19;;;;;;;24.92;18.20;;;16.10;54.30;;;;;;4209044;27;20091;-43
2024/01/11 02:49:59;;;;;;;26.77;18.97;;;16.10;54.20;;;;;;4215075;27;20070;-44
2024/01/11 02:52:41;;;;;;;24.85;17.90;;;16.10;54.40;;;;;;4215336;27;20054;-44
2024/01/11 02:55:22;;;;;;;24.15;18.40;;;16.00;54.50;;;;;;4215738;27;20055;-44
2024/01/11 02:58:04;;;;;;;24.17;18.47;;;16.10;54.50;;;;;;4196503;28;20086;-44
2024/01/11 03:00:45;;;;;;;24.27;18.33;;;16.10;54.30;;;;;;4193678;28;20084;-44
2024/01/11 03:03:27;;;;;;;25.08;17.75;;;16.20;54.20;;;;;;4201842;28;20096;-44
2024/01/11 03:06:07;;;;;;;27.30;19.58;;;16.20;54.20;;;;;;4203205;27;20063;-44
2024/01/11 03:08:49;;;;;;;25.02;17.92;;;16.20;54.20;;;;;;4216762;27;20055;-43
2024/01/11 03:11:30;;;;;;;23.52;17.95;;;16.30;54.10;;;;;;4201488;28;20063;-44
2024/01/11 03:14:12;;;;;;;28.38;19.45;;;16.30;53.90;;;;;;4202534;28;20213;-44
2024/01/11 03:16:53;;;;;;;24.92;18.45;;;16.40;53.90;;;;;;4201355;28;20104;-45
2024/01/11 03:19:34;;;;;;;24.75;17.83;;;16.40;53.90;;;;;;4201927;28;20059;-44
2024/01/11 03:22:15;;;;;;;27.33;18.77;;;16.50;53.80;;;;;;4200924;28;20055;-43
2024/01/11 03:24:57;;;;;;;26.77;17.60;;;16.50;53.60;;;;;;4199242;28;20062;-44
2024/01/11 03:27:38;;;;;;;25.45;18.48;;;16.50;53.70;;;;;;4202732;28;20096;-45
2024/01/11 03:30:21;;;;;;;23.67;18.08;;;16.40;53.70;;;;;;4202449;28;20403;-45
2024/01/11 03:33:01;;;;;;;23.98;17.00;;;16.40;53.70;;;;;;4214172;27;20108;-44
2024/01/11 03:35:43;;;;;;;22.58;18.08;;;16.50;53.60;;;;;;4218939;27;20062;-44
2024/01/11 03:38:24;;;;;;;;;;;16.50;53.50;;;;;;4183077;28;20051;-43
2024/01/11 03:41:09;;;;;;;24.13;17.57;;;16.50;53.70;;;;;;4185836;28;19928;-46
2024/01/11 03:43:51;;;;;;;29.00;19.73;;;16.50;53.70;;;;;;4182056;28;20067;-44
2024/01/11 03:46:33;;;;;;;26.48;19.13;;;16.40;53.70;;;;;;4185325;28;20056;-44
2024/01/11 03:49:14;;;;;;;24.73;18.38;;;16.40;53.80;;;;;;4196166;28;20048;-43
2024/01/11 03:51:55;;;;;;;27.52;19.50;;;16.30;53.90;;;;;;4184364;28;20059;-47
2024/01/11 03:54:36;;;;;;;26.67;18.40;;;16.30;54.10;;;;;;4183469;27;20052;-46
2024/01/11 03:57:17;;;;;;;24.25;18.23;;;16.10;54.20;;;;;;4181273;28;20060;-46
2024/01/11 03:59:58;;;;;;;26.17;19.08;;;16.00;54.50;;;;;;4180988;28;20129;-47
2024/01/11 04:02:41;;;;;;;;;;;15.90;54.90;;;;;;4182607;28;20062;-48
2024/01/11 04:05:22;;;;;;;25.45;18.33;;;15.80;55.20;;;;;;4183483;28;19927;-47
2024/01/11 04:08:05;;;;;;;27.38;18.77;;;15.70;55.30;;;;;;4197976;28;20525;-48
2024/01/11 04:10:46;;;;;;;25.10;17.92;;;15.60;55.60;;;;;;4198596;27;20406;-47
2024/01/11 04:13:28;;;;;;;25.73;18.30;;;15.60;55.90;;;;;;4200580;27;20414;-49
2024/01/11 04:16:09;;;;;;;;;;;15.70;55.90;;;;;;4199356;28;20055;-47
2024/01/11 04:18:51;;;;;;;23.73;17.52;;;15.80;55.80;;;;;;4196725;28;19935;-47
2024/01/11 04:21:33;;;;;;;26.30;18.10;;;15.80;55.30;;;;;;4200186;27;20055;-46
2024/01/11 04:24:14;;;;;;;23.23;18.00;;;16.00;55.10;;;;;;4191121;28;20398;-47
2024/01/11 04:26:55;;;;;;;26.52;18.67;;;16.10;54.80;;;;;;4199340;27;20178;-46
2024/01/11 04:29:36;;;;;;;26.13;18.15;;;16.20;54.70;;;;;;4199173;28;20055;-47
2024/01/11 04:32:17;;;;;;;25.30;18.83;;;16.30;54.50;;;;;;4200607;28;20171;-47
2024/01/11 04:34:59;;;;;;;26.17;18.67;;;16.40;54.20;;;;;;4197727;28;20074;-46
2024/01/11 04:37:41;;;;;;;24.40;18.40;;;16.40;54.10;;;;;;4196438;28;20055;-48
2024/01/11 04:40:22;;;;;;;24.40;17.75;;;16.50;53.90;;;;;;4197376;28;20054;-48
2024/01/11 04:43:03;;;;;;;28.80;20.43;;;16.50;53.90;;;;;;4190872;28;20411;-48
2024/01/11 04:45:44;;;;;;;28.42;19.75;;;16.50;53.90;;;;;;4196776;28;20816;-48
2024/01/11 04:48:25;;;;;;;28.42;18.70;;;16.40;54.10;;;;;;4197056;27;20073;-48
2024/01/11 04:51:08;;;;;;;28.02;18.92;;;16.40;54.10;;;;;;4233730;27;20066;-47
2024/01/11 04:53:49;;;;;;;25.98;18.88;;;16.50;54.00;;;;;;4232756;27;20416;-43
2024/01/11 04:56:30;;;;;;;24.30;17.67;;;16.50;53.90;;;;;;4213485;27;20126;-44
2024/01/11 04:59:11;;;;;;;28.85;20.50;;;16.50;53.80;;;;;;4201010;28;20050;-43
2024/01/11 05:01:52;;;;;;;27.58;19.67;;;16.50;53.90;;;;;;4200334;28;20471;-44
2024/01/11 05:04:33;;;;;;;26.40;19.27;;;16.60;53.90;;;;;;4205113;27;20066;-44
2024/01/11 05:07:15;;;;;;;30.60;20.97;;;16.60;53.80;;;;;;4215588;27;20115;-44
2024/01/11 05:09:57;;;;;;;29.88;20.63;;;16.60;53.60;;;;;;4216333;27;20807;-44
2024/01/11 05:12:38;;;;;;;28.60;20.30;;;16.60;53.60;;;;;;4206275;27;20054;-43
2024/01/11 05:15:19;;;;;;;29.25;19.67;;;16.60;53.70;;;;;;4199456;28;20051;-47
2024/01/11 05:18:00;;;;;;;25.58;18.33;;;16.50;53.80;;;;;;4210241;27;20070;-44
2024/01/11 05:20:41;;;;;;;27.83;19.85;;;16.40;54.20;;;;;;4234552;27;20050;-45
2024/01/11 05:23:23;;;;;;;30.60;20.45;;;16.30;54.50;;;;;;4226120;27;20078;-44
2024/01/11 05:26:05;;;;;;;28.00;19.35;;;16.20;54.70;;;;;;4211486;27;20442;-44
2024/01/11 05:28:46;;;;;;;26.58;18.30;;;16.30;54.80;;;;;;4202834;28;20050;-43
2024/01/11 05:31:27;;;;;;;27.55;19.67;;;16.30;54.60;;;;;;4203922;28;20097;-43
2024/01/11 05:34:11;;;;;;;29.67;20.35;;;16.40;54.50;;;;;;4203886;28;20075;-45
2024/01/11 05:36:53;;;;;;;29.15;19.50;;;16.40;54.30;;;;;;4203815;27;20079;-52
2024/01/11 05:39:35;;;;;;;31.48;21.10;;;16.50;54.80;;;;;;4203175;27;20051;-48
2024/01/11 05:42:16;;;;;;;26.15;19.27;;;16.60;54.10;;;;;;4203764;27;20058;-48
2024/01/11 05:44:57;;;;;;;30.90;20.70;;;16.60;54.00;;;;;;4186821;28;20105;-48
2024/01/11 05:47:38;;;;;;;27.13;19.77;;;16.60;54.00;;;;;;4202548;28;20176;-50
2024/01/11 05:50:19;;;;;;;27.92;20.50;;;16.70;53.90;;;;;;4202770;28;20065;-50
2024/01/11 05:53:00;;;;;;;27.80;20.65;;;16.70;54.40;;;;;;4203777;28;20055;-47
2024/01/11 05:55:42;;;;;;;29.55;20.15;;;16.70;54.50;;;;;;4203794;28;20059;-47
2024/01/11 05:58:23;;;;;;;28.38;20.65;;;16.70;53.80;;;;;;4203563;28;20055;-47
2024/01/11 06:01:04;;;;;;;29.40;20.20;;;16.70;53.80;;;;;;4203425;28;20777;-47
2024/01/11 06:03:45;;;;;;;29.13;19.95;;;16.70;54.00;;;;;;4203377;28;20100;-48
2024/01/11 06:06:26;;;;;;;27.10;20.17;;;16.60;54.10;;;;;;4203172;28;20081;-49
2024/01/11 06:09:08;;;;;;;27.85;19.35;;;16.60;54.20;;;;;;4203424;27;20114;-48
2024/01/11 06:11:50;;;;;;;27.75;19.48;;;16.60;54.20;;;;;;4203444;28;20442;-48
2024/01/11 06:14:31;;;;;;;26.95;19.63;;;16.60;54.20;;;;;;4186470;28;20055;-48
2024/01/11 06:17:12;;;;;;;27.40;19.55;;;16.60;54.10;;;;;;4203176;28;20205;-46
2024/01/11 06:19:53;;;;;;;26.95;19.08;;;16.70;54.20;;;;;;4202976;28;20050;-48
2024/01/11 06:22:33;;;;;;;31.13;20.00;;;16.70;54.20;;;;;;4203193;28;20063;-50
2024/01/11 06:25:15;;;;;;;27.33;19.08;;;16.70;54.20;;;;;;4205904;27;20047;-51
2024/01/11 06:27:57;;;;;;;29.20;19.90;;;16.60;54.30;;;;;;4219419;27;20108;-54
2024/01/11 06:30:38;;;;;;;24.90;18.45;;;16.50;54.50;;;;;;4219122;27;20192;-49
2024/01/11 06:33:20;;;;;;;28.15;18.85;;;16.40;54.80;;;;;;4202952;27;20054;-49
2024/01/11 06:36:01;;;;;;;26.98;19.60;;;16.40;54.90;;;;;;4203401;28;20046;-46
2024/01/11 06:38:42;;;;;;;30.40;19.92;;;16.30;55.00;;;;;;4206184;28;20185;-49
2024/01/11 06:41:23;;;;;;;27.95;18.85;;;16.30;55.30;;;;;;4205888;28;20407;-49
2024/01/11 06:44:05;;;;;;;26.48;17.95;;;16.20;55.40;;;;;;4205363;28;20059;-52
2024/01/11 06:46:46;;;;;;;25.10;18.02;;;16.30;55.30;;;;;;4222176;27;20050;-49
2024/01/11 06:49:28;;;;;;;26.00;18.45;;;16.40;55.60;;;;;;4205800;27;20054;-53
2024/01/11 06:52:09;;;;;;;24.15;17.05;;;16.50;55.40;;;;;;4223389;27;20058;-51
2024/01/11 06:54:50;;;;;;;29.25;18.60;;;16.50;55.30;;;;;;4221011;27;20218;-53
2024/01/11 06:57:31;;;;;;;25.75;18.02;;;16.60;55.20;;;;;;4215747;27;20151;-50
2024/01/11 07:00:14;;;;;;;23.05;17.38;;;16.70;55.00;;;;;;4209280;27;20051;-49
2024/01/11 07:02:55;;;;;;;24.50;18.05;;;16.70;55.60;;;;;;4206494;28;20051;-51
2024/01/11 07:05:36;;;;;;;25.60;18.20;;;16.70;54.80;;;;;;4210360;27;20047;-50
2024/01/11 07:08:18;;;;;;;24.15;17.20;;;16.60;54.80;;;;;;4216814;27;20047;-51
2024/01/11 07:10:58;;;;;;;26.35;19.00;;;16.50;54.80;;;;;;4205674;28;20063;-48
2024/01/11 07:13:39;;;;;;;27.25;19.17;;;16.50;55.20;;;;;;4205289;28;20100;-51
2024/01/11 07:16:22;;;;;;;26.70;17.15;;;16.40;55.40;;;;;;4204890;28;20050;-48
2024/01/11 07:19:03;;;;;;;24.45;17.52;;;16.40;55.90;;;;;;4204907;28;20104;-50
2024/01/11 07:21:44;;;;;;;24.60;17.15;;;16.30;55.90;;;;;;4188567;28;20063;-51
2024/01/11 07:24:25;;;;;;;22.83;16.77;;;16.20;56.10;;;;;;4188726;28;20059;-48
2024/01/11 07:27:06;;;;;;;24.30;17.93;;;16.20;56.10;;;;;;4189281;28;20067;-53
2024/01/11 07:29:47;;;;;;;26.98;17.77;;;16.30;56.10;;;;;;4188314;28;20375;-49
2024/01/11 07:32:29;;;;;;;22.58;16.38;;;16.40;55.60;;;;;;4203691;28;20046;-52
2024/01/11 07:35:10;;;;;;;31.08;19.67;;;16.50;55.30;;;;;;4199829;28;20060;-49
2024/01/11 07:37:54;;;;;;;24.92;17.75;;;16.60;54.60;;;;;;4188961;27;20071;-52
2024/01/11 07:40:35;;;;;;;;;;;16.60;53.80;;;;;;4201938;27;20092;-50
2024/01/11 07:43:17;;;;;;;25.75;17.42;;;16.70;53.50;;;;;;4188812;28;20035;-51
2024/01/11 07:45:58;;;;;;;24.80;17.40;;;16.60;53.40;;;;;;4217907;27;20394;-48
2024/01/11 07:48:40;;;;;;;22.88;15.95;;;16.60;53.60;;;;;;4211913;27;20517;-49
2024/01/11 07:51:21;;;;;;;24.77;16.15;;;16.50;53.60;;;;;;4220575;27;20116;-49
2024/01/11 07:54:03;;;;;;;22.67;16.15;;;16.50;53.90;;;;;;4205624;28;20101;-48
2024/01/11 07:56:44;;;;;;;21.42;15.77;;;16.50;53.90;;;;;;4220745;27;20485;-49
2024/01/11 07:59:25;;;;;;;20.92;15.85;;;16.50;53.80;;;;;;4218210;27;20047;-50
2024/01/11 08:02:07;;;;;;;22.48;16.38;;;16.60;53.70;;;;;;4221468;27;20054;-48
2024/01/11 08:04:49;;;;;;;24.50;14.90;;;16.60;53.50;;;;;;4218161;27;20136;-51
2024/01/11 08:07:30;;;;;;;21.83;15.15;;;16.60;53.30;;;;;;4221682;27;20485;-52
2024/01/11 08:10:11;;;;;;;23.17;16.63;;;16.60;53.40;;;;;;4221667;27;20173;-48
2024/01/11 08:12:53;;;;;;;22.92;16.15;;;16.70;53.30;;;;;;4193307;27;20182;-50
2024/01/11 08:15:34;;;;;;;21.58;15.30;;;16.70;53.30;;;;;;4194727;27;20059;-47
2024/01/11 08:18:15;;;;;;;21.05;14.95;;;16.60;53.40;;;;;;4196810;27;20101;-50
2024/01/11 08:20:58;;;;;;;18.23;13.50;;;16.60;53.50;;;;;;4189004;27;20131;-51
2024/01/11 08:23:44;;;;;;;18.60;13.40;;;16.50;53.90;;;;;;4188127;28;20557;-53
2024/01/11 08:26:25;;;;;;;22.10;15.05;;;16.30;54.10;;;;;;4203032;27;20198;-49
2024/01/11 08:29:06;;;;;;;23.60;16.15;;;16.20;54.60;;;;;;4202362;27;20062;-50
2024/01/11 08:31:47;;;;;;;21.30;15.25;;;16.20;55.70;;;;;;4218206;27;20108;-52
2024/01/11 08:34:29;;;;;;;26.15;16.70;;;16.20;55.10;;;;;;4217522;27;20096;-52
2024/01/11 08:37:11;;;;;;;20.77;15.65;;;16.10;55.40;;;;;;4188324;28;20561;-51
2024/01/11 08:39:55;;;;;;;22.25;16.05;;;16.00;55.40;;;;;;4198121;28;20059;-51
2024/01/11 08:42:35;;;;;;;21.40;15.90;;;16.10;55.40;;;;;;4201631;28;20051;-53
2024/01/11 08:45:17;;;;;;;23.52;15.90;;;16.30;54.90;;;;;;4189070;28;20070;-54
2024/01/11 08:47:59;;;;;;;22.95;15.77;;;16.40;55.40;;;;;;4189102;27;20058;-51
2024/01/11 08:50:40;;;;;;;21.02;15.25;;;16.50;56.10;;;;;;4193530;27;20043;-50
2024/01/11 08:53:23;;;;;;;21.35;15.38;;;16.50;57.10;;;;;;4201717;27;20184;-50
2024/01/11 08:56:05;;;;;;;22.23;14.75;;;16.60;57.30;;;;;;4215669;27;20053;-48
2024/01/11 08:58:46;;;;;;;18.83;13.48;;;16.70;56.60;;;;;;4212203;27;20054;-49
2024/01/11 09:01:27;;;;;;;;;;;16.80;56.20;;;;;;4213208;27;20506;-48
2024/01/11 09:04:09;;;;;;;20.80;15.57;;;16.80;56.00;;;;;;4216301;27;19943;-52
2024/01/11 09:06:50;;;;;;;20.08;14.65;;;16.80;55.70;;;;;;4208721;27;20104;-49
2024/01/11 09:09:32;;;;;;;17.92;13.90;;;16.80;55.50;;;;;;4219853;27;20050;-48
2024/01/11 09:12:18;;;;;;;19.00;13.55;;;16.80;55.50;;;;;;4220301;27;20486;-48
2024/01/11 09:14:59;;;;;;;18.92;14.15;;;16.80;55.50;;;;;;4215989;27;20059;-48
2024/01/11 09:17:40;;;;;;;21.20;14.68;;;16.80;55.50;;;;;;4203680;28;20529;-49
2024/01/11 09:20:22;;;;;;;19.63;14.60;;;16.70;55.80;;;;;;4203492;28;20051;-52
2024/01/11 09:23:03;;;;;;;20.27;14.27;;;16.60;56.00;;;;;;4203730;28;20047;-53
2024/01/11 09:25:46;;;;;;;;;;;16.50;56.30;;;;;;4203020;27;20059;-49
2024/01/11 09:28:27;;;;;;;19.17;13.48;;;16.40;56.70;;;;;;4220797;27;19931;-47
2024/01/11 09:31:08;;;;;;;20.15;14.10;;;16.40;57.00;;;;;;4220556;27;20062;-46
2024/01/11 09:33:50;;;;;;;21.88;15.02;;;16.40;57.10;;;;;;4219338;27;20058;-47
2024/01/11 09:36:31;;;;;;;18.70;13.95;;;16.40;56.90;;;;;;4203629;28;20055;-45
2024/01/11 09:39:13;;;;;;;19.13;14.82;;;16.30;57.70;;;;;;4203769;28;20075;-48
2024/01/11 09:42:00;;;;;;;20.13;13.32;;;16.30;57.30;;;;;;4202559;28;20563;-47
2024/01/11 09:44:42;;;;;;;20.67;14.18;;;16.20;57.30;;;;;;4204744;28;20055;-49
2024/01/11 09:47:25;;;;;;;23.63;14.70;;;16.10;57.60;;;;;;4202225;28;20608;-48
2024/01/11 09:50:10;;;;;;;21.10;14.50;;;16.00;58.10;;;;;;4209182;27;20051;-52
2024/01/11 09:52:51;;;;;;;22.55;14.25;;;16.00;58.60;;;;;;4184170;28;20063;-50
2024/01/11 09:55:32;;;;;;;19.27;14.63;;;16.00;58.50;;;;;;4189505;27;20052;-46
2024/01/11 09:58:15;;;;;;;;;;;16.10;58.40;;;;;;4217831;27;20055;-46
2024/01/11 10:00:59;;;;;;;22.17;14.90;;;16.10;58.30;;;;;;4214086;27;19931;-46
2024/01/11 10:03:41;;;;;;;24.73;15.82;;;16.10;58.10;;;;;;4199641;28;20051;-48
2024/01/11 10:06:24;;;;;;;22.45;15.35;;;16.20;58.00;;;;;;4201565;27;20050;-53
2024/01/11 10:09:05;;;;;;;20.58;14.38;;;16.30;57.70;;;;;;4215668;27;20054;-53
2024/01/11 10:11:47;;;;;;;21.65;14.90;;;16.40;57.50;;;;;;4189034;27;20101;-50
2024/01/11 10:14:29;;;;;;;18.50;14.00;;;16.30;57.60;;;;;;4185417;28;20179;-50
2024/01/11 10:17:10;;;;;;;19.77;14.45;;;16.30;57.10;;;;;;4200471;28;20224;-51
2024/01/11 10:19:58;;;;;;;20.38;13.85;;;16.20;57.80;;;;;;4200257;27;20062;-50
2024/01/11 10:22:40;;;;;;;20.67;14.90;;;16.20;58.30;;;;;;4198997;28;20069;-54
2024/01/11 10:25:21;;;;;;;19.38;14.93;;;16.30;57.70;;;;;;4197312;28;20055;-47
2024/01/11 10:28:02;;;;;;;22.00;14.93;;;16.40;57.80;;;;;;4216627;27;20058;-46
2024/01/11 10:30:47;;;;;;;22.75;14.75;;;16.30;57.90;;;;;;4215724;27;20124;-45
2024/01/11 10:33:28;;;;;;;18.20;13.48;;;16.40;58.00;;;;;;4203583;28;20186;-49
2024/01/11 10:36:12;;;;;;;20.42;14.63;;;16.40;58.00;;;;;;4204079;27;20563;-47
2024/01/11 10:38:56;;;;;;;20.85;14.93;;;16.40;58.10;;;;;;4201772;28;20059;-46
2024/01/11 10:41:41;;;;;;;20.10;13.90;;;16.30;58.10;;;;;;4198255;27;20108;-48
2024/01/11 10:44:23;;;;;;;21.65;14.00;;;16.30;58.40;;;;;;4186550;28;20074;-48
2024/01/11 10:47:08;;;;;;;20.05;14.18;;;16.20;58.50;;;;;;4186445;28;20056;-48
2024/01/11 10:49:51;;;;;;;18.15;13.10;;;16.10;58.80;;;;;;4186711;28;20048;-46
2024/01/11 10:52:43;;;;;;;17.10;13.70;;;16.00;59.10;;;;;;4186602;28;20138;-47
2024/01/11 10:55:25;;;;;;;19.30;13.13;;;16.10;59.20;;;;;;4193282;28;20167;-46
2024/01/11 10:58:08;;;;;;;20.45;13.32;;;16.20;59.10;;;;;;4203292;28;20050;-45
2024/01/11 11:00:52;;;;;;;18.77;12.48;;;16.30;58.70;;;;;;4198175;27;20060;-50
2024/01/11 11:03:36;;;;;;;18.23;13.65;;;16.30;58.40;;;;;;4186294;28;20051;-48
2024/01/11 11:06:21;;;;;;;18.40;12.57;;;16.40;58.50;;;;;;4185919;28;20052;-45
2024/01/11 11:09:03;;;;;;;16.33;11.85;;;16.40;58.50;;;;;;4186759;28;20075;-51
2024/01/11 11:11:45;;;;;;;18.30;12.85;;;16.30;58.40;;;;;;4192969;27;20051;-52
2024/01/11 11:14:26;;;;;;;17.30;13.30;;;16.20;58.50;;;;;;4186446;28;20163;-53
2024/01/11 11:17:08;;;;;;;16.95;12.23;;;16.10;58.70;;;;;;4202681;28;20106;-51
2024/01/11 11:19:51;;;;;;;19.05;13.40;;;16.10;59.00;;;;;;4202501;28;20047;-52
2024/01/11 11:22:35;;;;;;;19.50;12.57;;;16.00;59.10;;;;;;4204351;27;20177;-53
2024/01/11 11:25:25;;;;;;;18.52;13.15;;;16.00;59.30;;;;;;4205279;27;20050;-53
2024/01/11 11:28:07;;;;;;;18.27;12.70;;;15.90;59.20;;;;;;4213517;27;20115;-53
2024/01/11 11:30:49;;;;;;;;;;;15.80;59.40;;;;;;4219124;27;20092;-53
2024/01/11 11:33:31;;;;;;;20.50;12.80;;;15.80;59.90;;;;;;4205166;28;19931;-53
2024/01/11 11:36:18;;;;;;;18.42;13.02;;;15.80;59.80;;;;;;4205568;27;20059;-52
2024/01/11 11:39:02;;;;;;;18.27;12.52;;;15.70;59.70;;;;;;4204318;28;20111;-52
2024/01/11 11:41:43;;;;;;;16.35;11.95;;;15.70;59.70;;;;;;4199172;28;20391;-50
2024/01/11 11:44:26;;;;;;;17.10;12.55;;;15.70;60.10;;;;;;4203758;28;20383;-50
2024/01/11 11:47:34;;;;;;;17.77;11.93;;;15.60;60.10;;;;;;4209101;27;20123;-49
2024/01/11 11:50:17;;;;;;;15.55;11.30;;;15.60;59.90;;;;;;4193587;27;20047;-45
2024/01/11 11:53:00;;;;;;;16.33;12.07;;;15.60;60.00;;;;;;4203998;28;20096;-47
2024/01/11 11:55:42;;;;;;;15.63;11.98;;;15.50;59.90;;;;;;4221987;27;20501;-46
2024/01/11 11:58:23;;;;;;;19.30;12.85;;;15.40;60.20;;;;;;4208142;27;20395;-47
2024/01/11 12:01:05;;;;;;;17.55;12.15;;;15.30;60.70;;;;;;4216885;27;20059;-46
2024/01/11 12:03:49;;;;;;;18.38;11.93;;;15.30;61.20;;;;;;4216332;27;20407;-53
2024/01/11 12:06:30;;;;;;;16.90;12.13;;;15.30;61.50;;;;;;4215362;28;20181;-51
2024/01/11 12:09:21;;;;;;;18.25;11.98;;;15.40;61.30;;;;;;4204494;28;20054;-54
2024/01/11 12:12:01;;;;;;;16.17;11.82;;;15.50;61.00;;;;;;4204683;28;20059;-53
2024/01/11 12:14:47;;;;;;;19.73;13.00;;;15.60;60.40;;;;;;4198234;28;20173;-53
2024/01/11 12:17:28;;;;;;;16.50;11.70;;;15.80;60.00;;;;;;4203750;27;20055;-46
2024/01/11 12:20:11;;;;;;;18.40;12.27;;;15.90;59.60;;;;;;4204278;27;20098;-48
2024/01/11 12:22:53;;;;;;;17.00;12.23;;;16.00;60.00;;;;;;4215011;27;20513;-45
2024/01/11 12:25:36;;;;;;;18.38;12.98;;;16.20;58.90;;;;;;4210963;27;20082;-47
2024/01/11 12:28:17;;;;;;;17.33;11.95;;;16.30;58.70;;;;;;4216344;27;20050;-49
2024/01/11 12:30:58;;;;;;;19.35;12.48;;;16.40;58.20;;;;;;4205657;27;20051;-48
2024/01/11 12:33:40;;;;;;;15.80;11.80;;;16.40;58.10;;;;;;4207549;27;20521;-48
2024/01/11 12:36:21;;;;;;;19.05;12.68;;;16.40;58.10;;;;;;4211743;27;20047;-46
2024/01/11 12:39:04;;;;;;;16.60;11.23;;;16.40;58.00;;;;;;4214232;27;20088;-49
2024/01/11 12:41:46;;;;;;;15.57;11.80;;;16.40;58.00;;;;;;4199158;28;20051;-49
2024/01/11 12:44:29;;;;;;;16.88;11.68;;;16.40;57.90;;;;;;4203667;27;20054;-49
2024/01/11 12:47:10;;;;;;;23.45;14.00;;;16.40;58.00;;;;;;4211695;27;20081;-51
2024/01/11 12:49:52;;;;;;;17.27;12.07;;;16.50;57.90;;;;;;4198399;28;20487;-49
2024/01/11 12:52:33;;;;;;;18.10;12.48;;;16.60;58.30;;;;;;4198694;28;20430;-49
2024/01/11 12:55:20;;;;;;;20.52;14.02;;;16.60;57.40;;;;;;4186002;28;20076;-47
2024/01/11 12:58:06;;;;;;;16.98;12.45;;;16.70;57.30;;;;;;4209391;27;20059;-50
2024/01/11 13:00:48;;;;;;;17.50;12.50;;;16.80;57.10;;;;;;4210234;27;20099;-49
2024/01/11 13:03:29;;;;;;;19.23;13.05;;;16.90;56.90;;;;;;4214624;27;20102;-49
2024/01/11 13:06:11;;;;;;;19.77;11.50;;;16.90;56.90;;;;;;4213999;27;20054;-49
2024/01/11 13:08:52;;;;;;;20.17;13.52;;;16.80;57.50;;;;;;4202760;27;20051;-49
2024/01/11 13:11:33;;;;;;;21.33;13.82;;;16.80;57.00;;;;;;4201121;27;20054;-48
2024/01/11 13:14:19;;;;;;;17.13;12.35;;;16.80;57.10;;;;;;4195036;28;20137;-50
2024/01/11 13:17:00;;;;;;;19.67;13.55;;;16.80;57.00;;;;;;4196595;28;20105;-49
2024/01/11 13:19:44;;;;;;;18.17;12.65;;;16.80;57.00;;;;;;4199808;28;20074;-48
2024/01/11 13:22:27;;;;;;;21.08;12.50;;;16.80;57.00;;;;;;4186671;28;20513;-49
2024/01/11 13:25:09;;;;;;;21.42;12.68;;;16.80;57.00;;;;;;4197671;28;20058;-52
2024/01/11 13:27:50;;;;;;;18.83;13.45;;;16.80;57.00;;;;;;4209881;27;20062;-48
2024/01/11 13:30:32;;;;;;;17.15;11.90;;;16.70;57.50;;;;;;4188519;27;20563;-49
2024/01/11 13:33:16;;;;;;;22.95;13.27;;;16.60;57.80;;;;;;4185501;27;20059;-50
2024/01/11 13:35:57;;;;;;;30.02;15.25;;;16.60;57.90;;;;;;4197282;28;20058;-44
2024/01/11 13:38:39;;;;;;;20.20;13.05;;;16.60;57.80;;;;;;4218998;27;20203;-46
2024/01/11 13:41:20;;;;;;;20.08;13.55;;;16.50;57.90;;;;;;4211894;27;20551;-43
2024/01/11 13:44:01;;;;;;;;;;;16.40;58.30;;;;;;4222208;27;20513;-49